sensor_id;sensor_type;location;lat;lon;timestamp;pressure;altitude;pressure_sealevel;temperature;humidity
9229;BME280;4649;42.644;23.284;2023-06-22T04:30:58;93352.59;;;18.34;93.12
9229;BME280;4649;42.644;23.284;2023-06-22T04:40:05;93549.34;;;20.52;93.77
9229;BME280;4649;42.644;23.284;2023-06-22T04:42:34;93516.25;;;20.73;91.84
9229;BME280;4649;42.644;23.284;2023-06-22T04:45:01;93570.19;;;21.41;91.55
9229;BME280;4649;42.644;23.284;2023-06-22T04:47:29;93571.91;;;21.58;88.64
9229;BME280;4649;42.644;23.284;2023-06-22T04:49:56;93506.63;;;21.16;85.64
9229;BME280;4649;42.644;23.284;2023-06-22T04:52:23;93573.03;;;21.70;84.09
9229;BME280;4649;42.644;23.284;2023-06-22T04:54:50;93424.91;;;20.74;85.10
9229;BME280;4649;42.644;23.284;2023-06-22T04:57:21;93460.75;;;21.11;84.88
9229;BME280;4649;42.644;23.284;2023-06-22T04:59:59;93451.94;;;21.05;84.01
9229;BME280;4649;42.644;23.284;2023-06-22T05:02:39;93587.31;;;22.21;83.32
9229;BME280;4649;42.644;23.284;2023-06-22T05:05:07;93491.09;;;21.71;84.16
9229;BME280;4649;42.644;23.284;2023-06-22T05:07:39;93438.53;;;21.69;79.92
9229;BME280;4649;42.644;23.284;2023-06-22T05:10:09;93445.66;;;21.94;78.91
9229;BME280;4649;42.644;23.284;2023-06-22T05:12:39;93583.34;;;22.83;78.75
9229;BME280;4649;42.644;23.284;2023-06-22T05:15:10;93475.38;;;22.25;78.10
9229;BME280;4649;42.644;23.284;2023-06-22T05:17:38;93592.28;;;23.14;78.15
9229;BME280;4649;42.644;23.284;2023-06-22T05:20:09;93485.03;;;22.95;82.17
9229;BME280;4649;42.644;23.284;2023-06-22T05:22:36;93580.28;;;24.06;75.38
9229;BME280;4649;42.644;23.284;2023-06-22T05:25:08;93539.09;;;23.93;72.66
9229;BME280;4649;42.644;23.284;2023-06-22T05:27:46;93574.22;;;24.00;72.78
9229;BME280;4649;42.644;23.284;2023-06-22T05:30:19;93427.31;;;23.14;72.92
9229;BME280;4649;42.644;23.284;2023-06-22T05:39:29;93589.78;;;24.37;71.08
9229;BME280;4649;42.644;23.284;2023-06-22T05:41:58;93605.47;;;24.35;71.02
9229;BME280;4649;42.644;23.284;2023-06-22T05:44:50;93541.63;;;23.99;71.63
9229;BME280;4649;42.644;23.284;2023-06-22T05:47:18;93627.22;;;24.79;69.41
9229;BME280;4649;42.644;23.284;2023-06-22T05:49:46;93561.72;;;24.41;67.56
9229;BME280;4649;42.644;23.284;2023-06-22T05:52:13;93634.81;;;24.96;66.81
9229;BME280;4649;42.644;23.284;2023-06-22T05:54:50;93619.00;;;25.22;66.90
9229;BME280;4649;42.644;23.284;2023-06-22T05:57:18;93590.41;;;25.20;65.53
9229;BME280;4649;42.644;23.284;2023-06-22T05:59:47;93622.59;;;25.32;66.72
9229;BME280;4649;42.644;23.284;2023-06-22T06:02:17;93574.69;;;25.06;64.56
9229;BME280;4649;42.644;23.284;2023-06-22T06:04:44;93630.19;;;25.58;64.76
9229;BME280;4649;42.644;23.284;2023-06-22T06:07:11;93574.66;;;25.22;67.56
9229;BME280;4649;42.644;23.284;2023-06-22T06:09:42;93463.78;;;24.70;64.56
9229;BME280;4649;42.644;23.284;2023-06-22T06:12:11;93551.53;;;25.54;64.45
9229;BME280;4649;42.644;23.284;2023-06-22T06:14:38;93547.28;;;25.53;65.46
9229;BME280;4649;42.644;23.284;2023-06-22T06:17:06;93611.19;;;26.07;65.21
9229;BME280;4649;42.644;23.284;2023-06-22T06:19:38;93484.97;;;25.54;64.70
9229;BME280;4649;42.644;23.284;2023-06-22T06:22:05;93596.72;;;26.35;64.65
9229;BME280;4649;42.644;23.284;2023-06-22T06:24:33;93573.53;;;26.04;64.86
9229;BME280;4649;42.644;23.284;2023-06-22T06:27:00;93521.63;;;25.62;66.14
9229;BME280;4649;42.644;23.284;2023-06-22T06:29:36;93552.31;;;25.99;64.58
9229;BME280;4649;42.644;23.284;2023-06-22T06:32:18;93576.84;;;26.03;65.05
9229;BME280;4649;42.644;23.284;2023-06-22T06:34:59;93546.53;;;25.79;65.93
9229;BME280;4649;42.644;23.284;2023-06-22T06:37:28;93611.72;;;26.32;63.79
9229;BME280;4649;42.644;23.284;2023-06-22T06:39:56;93606.13;;;26.68;64.40
9229;BME280;4649;42.644;23.284;2023-06-22T06:42:25;93474.34;;;25.95;63.12
9229;BME280;4649;42.644;23.284;2023-06-22T06:45:11;93446.03;;;25.97;64.01
9229;BME280;4649;42.644;23.284;2023-06-22T06:47:49;93535.09;;;26.93;59.97
9229;BME280;4649;42.644;23.284;2023-06-22T06:50:18;93554.66;;;27.33;60.43
9229;BME280;4649;42.644;23.284;2023-06-22T06:52:45;93543.59;;;27.14;60.18
9229;BME280;4649;42.644;23.284;2023-06-22T06:55:15;93432.94;;;26.44;61.54
9229;BME280;4649;42.644;23.284;2023-06-22T06:57:42;93561.06;;;27.54;59.44
9229;BME280;4649;42.644;23.284;2023-06-22T07:00:13;93582.22;;;27.87;59.18
9229;BME280;4649;42.644;23.284;2023-06-22T07:02:42;93537.78;;;27.99;60.12
9229;BME280;4649;42.644;23.284;2023-06-22T07:05:11;93592.47;;;28.85;55.16
9229;BME280;4649;42.644;23.284;2023-06-22T07:07:38;93546.25;;;28.61;54.60
9229;BME280;4649;42.644;23.284;2023-06-22T07:10:07;93519.75;;;28.60;54.57
9229;BME280;4649;42.644;23.284;2023-06-22T07:12:35;93547.63;;;28.81;54.69
9229;BME280;4649;42.644;23.284;2023-06-22T07:15:07;93560.34;;;29.05;50.99
9229;BME280;4649;42.644;23.284;2023-06-22T07:17:36;93567.91;;;29.14;51.32
9229;BME280;4649;42.644;23.284;2023-06-22T07:20:05;93597.78;;;29.23;53.71
9229;BME280;4649;42.644;23.284;2023-06-22T07:22:36;93497.19;;;28.56;54.18
9229;BME280;4649;42.644;23.284;2023-06-22T07:25:04;93598.38;;;29.42;52.28
9229;BME280;4649;42.644;23.284;2023-06-22T07:27:35;93575.78;;;29.38;50.35
9229;BME280;4649;42.644;23.284;2023-06-22T07:30:06;93586.28;;;29.60;51.05
9229;BME280;4649;42.644;23.284;2023-06-22T07:32:34;93546.50;;;29.28;53.04
9229;BME280;4649;42.644;23.284;2023-06-22T07:35:02;93520.47;;;29.35;51.16
9229;BME280;4649;42.644;23.284;2023-06-22T07:37:30;93597.72;;;29.76;53.38
9229;BME280;4649;42.644;23.284;2023-06-22T07:39:58;93602.94;;;29.70;52.32
9229;BME280;4649;42.644;23.284;2023-06-22T07:42:26;93605.91;;;29.51;53.15
9229;BME280;4649;42.644;23.284;2023-06-22T07:44:54;93578.41;;;29.04;53.19
9229;BME280;4649;42.644;23.284;2023-06-22T07:47:21;93578.00;;;28.98;53.14
9229;BME280;4649;42.644;23.284;2023-06-22T07:49:51;93612.66;;;29.37;54.24
9229;BME280;4649;42.644;23.284;2023-06-22T07:52:21;93596.06;;;29.18;53.26
9229;BME280;4649;42.644;23.284;2023-06-22T07:54:48;93564.09;;;28.77;54.74
9229;BME280;4649;42.644;23.284;2023-06-22T07:57:16;93604.53;;;29.20;54.37
9229;BME280;4649;42.644;23.284;2023-06-22T07:59:44;93463.31;;;28.09;54.39
9229;BME280;4649;42.644;23.284;2023-06-22T08:02:11;93551.72;;;28.80;56.95
9229;BME280;4649;42.644;23.284;2023-06-22T08:04:39;93456.94;;;28.27;55.56
9229;BME280;4649;42.644;23.284;2023-06-22T08:07:06;93552.00;;;29.05;53.40
9229;BME280;4649;42.644;23.284;2023-06-22T08:09:35;93592.91;;;29.23;54.32
9229;BME280;4649;42.644;23.284;2023-06-22T08:12:02;93547.88;;;28.85;52.95
9229;BME280;4649;42.644;23.284;2023-06-22T08:14:29;93524.59;;;28.81;53.19
9229;BME280;4649;42.644;23.284;2023-06-22T08:16:56;93506.03;;;28.74;54.17
9229;BME280;4649;42.644;23.284;2023-06-22T08:19:24;93535.38;;;29.07;54.82
9229;BME280;4649;42.644;23.284;2023-06-22T08:21:51;93472.53;;;28.83;54.61
9229;BME280;4649;42.644;23.284;2023-06-22T08:24:18;93460.63;;;28.83;52.87
9229;BME280;4649;42.644;23.284;2023-06-22T08:26:49;93563.91;;;29.81;52.92
9229;BME280;4649;42.644;23.284;2023-06-22T08:29:18;93489.94;;;29.37;53.72
9229;BME280;4649;42.644;23.284;2023-06-22T08:31:45;93443.78;;;29.24;51.25
9229;BME280;4649;42.644;23.284;2023-06-22T08:34:13;93571.34;;;30.34;51.79
9229;BME280;4649;42.644;23.284;2023-06-22T08:36:40;93583.25;;;30.34;53.02
9229;BME280;4649;42.644;23.284;2023-06-22T08:39:08;93587.16;;;30.18;52.05
9229;BME280;4649;42.644;23.284;2023-06-22T08:41:36;93572.34;;;30.16;53.33
9229;BME280;4649;42.644;23.284;2023-06-22T08:44:05;93591.03;;;30.36;52.13
9229;BME280;4649;42.644;23.284;2023-06-22T08:46:32;93564.94;;;30.54;50.57
9229;BME280;4649;42.644;23.284;2023-06-22T08:48:59;93516.44;;;30.50;50.06
9229;BME280;4649;42.644;23.284;2023-06-22T08:51:26;93563.31;;;30.85;50.29
9229;BME280;4649;42.644;23.284;2023-06-22T08:53:54;93504.81;;;30.42;50.75
9229;BME280;4649;42.644;23.284;2023-06-22T08:56:21;93504.78;;;30.53;49.42
9229;BME280;4649;42.644;23.284;2023-06-22T08:58:48;93575.06;;;31.43;47.49
9229;BME280;4649;42.644;23.284;2023-06-22T09:01:17;93483.44;;;31.19;44.86
9229;BME280;4649;42.644;23.284;2023-06-22T09:03:44;93567.56;;;31.84;45.24
9229;BME280;4649;42.644;23.284;2023-06-22T09:06:19;93537.56;;;31.73;45.96
9229;BME280;4649;42.644;23.284;2023-06-22T09:08:46;93566.31;;;31.87;43.99
9229;BME280;4649;42.644;23.284;2023-06-22T09:11:14;93528.03;;;31.03;46.77
9229;BME280;4649;42.644;23.284;2023-06-22T09:13:44;93506.50;;;30.35;48.67
9229;BME280;4649;42.644;23.284;2023-06-22T09:16:11;93459.38;;;29.84;49.54
9229;BME280;4649;42.644;23.284;2023-06-22T09:18:40;93504.81;;;30.08;47.77
9229;BME280;4649;42.644;23.284;2023-06-22T09:21:07;93577.66;;;30.34;48.72
9229;BME280;4649;42.644;23.284;2023-06-22T09:23:34;93459.63;;;29.77;46.01
9229;BME280;4649;42.644;23.284;2023-06-22T09:26:02;93569.41;;;30.71;46.73
9229;BME280;4649;42.644;23.284;2023-06-22T09:28:29;93503.47;;;30.20;46.93
9229;BME280;4649;42.644;23.284;2023-06-22T09:30:57;93493.16;;;30.11;44.67
9229;BME280;4649;42.644;23.284;2023-06-22T09:33:25;93479.66;;;30.08;46.71
9229;BME280;4649;42.644;23.284;2023-06-22T09:35:56;93583.75;;;30.65;46.43
9229;BME280;4649;42.644;23.284;2023-06-22T09:38:25;93549.00;;;30.57;44.14
9229;BME280;4649;42.644;23.284;2023-06-22T09:40:54;93529.06;;;30.62;42.36
9229;BME280;4649;42.644;23.284;2023-06-22T09:43:21;93476.75;;;30.17;39.36
9229;BME280;4649;42.644;23.284;2023-06-22T09:45:48;93421.28;;;29.77;42.61
9229;BME280;4649;42.644;23.284;2023-06-22T09:48:16;93573.50;;;30.92;43.24
9229;BME280;4649;42.644;23.284;2023-06-22T09:50:43;93522.03;;;30.50;43.82
9229;BME280;4649;42.644;23.284;2023-06-22T09:53:11;93566.69;;;30.84;42.11
9229;BME280;4649;42.644;23.284;2023-06-22T09:55:38;93544.31;;;30.95;41.49
9229;BME280;4649;42.644;23.284;2023-06-22T09:58:05;93538.91;;;31.11;42.58
9229;BME280;4649;42.644;23.284;2023-06-22T10:00:33;93514.00;;;30.56;42.76
9229;BME280;4649;42.644;23.284;2023-06-22T10:03:00;93376.16;;;29.69;41.18
9229;BME280;4649;42.644;23.284;2023-06-22T10:05:27;93521.53;;;30.65;41.75
9229;BME280;4649;42.644;23.284;2023-06-22T10:07:54;93370.44;;;29.79;43.20
9229;BME280;4649;42.644;23.284;2023-06-22T10:10:25;93550.16;;;30.99;42.04
9229;BME280;4649;42.644;23.284;2023-06-22T10:12:56;93460.88;;;30.08;41.05
9229;BME280;4649;42.644;23.284;2023-06-22T10:15:24;93481.81;;;30.32;41.75
9229;BME280;4649;42.644;23.284;2023-06-22T10:17:52;93555.38;;;31.05;41.70
9229;BME280;4649;42.644;23.284;2023-06-22T10:20:19;93527.13;;;30.65;43.26
9229;BME280;4649;42.644;23.284;2023-06-22T10:22:47;93546.88;;;30.91;40.49
9229;BME280;4649;42.644;23.284;2023-06-22T10:25:14;93540.41;;;31.00;39.91
9229;BME280;4649;42.644;23.284;2023-06-22T10:27:46;93408.69;;;29.99;39.92
9229;BME280;4649;42.644;23.284;2023-06-22T10:30:15;93538.16;;;30.85;41.62
9229;BME280;4649;42.644;23.284;2023-06-22T10:32:43;93372.03;;;29.36;43.61
9229;BME280;4649;42.644;23.284;2023-06-22T10:35:10;93378.22;;;29.58;42.19
9229;BME280;4649;42.644;23.284;2023-06-22T10:37:42;93542.47;;;30.41;40.31
9229;BME280;4649;42.644;23.284;2023-06-22T10:40:10;93500.06;;;30.33;40.58
9229;BME280;4649;42.644;23.284;2023-06-22T10:42:37;93536.34;;;30.67;39.04
9229;BME280;4649;42.644;23.284;2023-06-22T10:45:08;93389.25;;;29.44;40.19
9229;BME280;4649;42.644;23.284;2023-06-22T10:47:35;93467.19;;;30.09;40.19
9229;BME280;4649;42.644;23.284;2023-06-22T10:50:04;93539.28;;;30.58;40.23
9229;BME280;4649;42.644;23.284;2023-06-22T10:52:31;93373.47;;;29.71;39.43
9229;BME280;4649;42.644;23.284;2023-06-22T10:55:00;93394.34;;;29.82;39.10
9229;BME280;4649;42.644;23.284;2023-06-22T10:57:28;93531.00;;;30.71;41.22
9229;BME280;4649;42.644;23.284;2023-06-22T10:59:55;93412.81;;;29.98;42.46
9229;BME280;4649;42.644;23.284;2023-06-22T11:02:26;93378.22;;;29.92;38.77
9229;BME280;4649;42.644;23.284;2023-06-22T11:04:56;93537.63;;;31.00;38.32
9229;BME280;4649;42.644;23.284;2023-06-22T11:07:25;93474.31;;;30.46;39.63
9229;BME280;4649;42.644;23.284;2023-06-22T11:09:54;93363.66;;;29.93;38.01
9229;BME280;4649;42.644;23.284;2023-06-22T11:12:21;93416.38;;;30.46;36.42
9229;BME280;4649;42.644;23.284;2023-06-22T11:15:02;93429.56;;;30.57;37.38
9229;BME280;4649;42.644;23.284;2023-06-22T11:17:45;93520.00;;;30.98;37.27
9229;BME280;4649;42.644;23.284;2023-06-22T11:20:13;93390.22;;;29.49;41.38
9229;BME280;4649;42.644;23.284;2023-06-22T11:22:41;93509.41;;;30.49;37.94
9229;BME280;4649;42.644;23.284;2023-06-22T11:25:09;93428.69;;;29.96;37.39
9229;BME280;4649;42.644;23.284;2023-06-22T11:27:38;93486.72;;;30.43;36.96
9229;BME280;4649;42.644;23.284;2023-06-22T11:30:07;93462.66;;;30.26;37.56
9229;BME280;4649;42.644;23.284;2023-06-22T11:32:34;93489.50;;;30.43;38.28
9229;BME280;4649;42.644;23.284;2023-06-22T11:35:06;93509.41;;;30.60;40.08
9229;BME280;4649;42.644;23.284;2023-06-22T11:37:35;93493.00;;;30.55;41.67
9229;BME280;4649;42.644;23.284;2023-06-22T11:40:15;93466.28;;;30.29;41.98
9229;BME280;4649;42.644;23.284;2023-06-22T11:42:43;93495.94;;;30.45;39.32
9229;BME280;4649;42.644;23.284;2023-06-22T11:45:12;93333.44;;;29.10;38.32
9229;BME280;4649;42.644;23.284;2023-06-22T11:47:39;93499.44;;;30.46;37.83
9229;BME280;4649;42.644;23.284;2023-06-22T11:50:12;93452.97;;;30.05;40.30
9229;BME280;4649;42.644;23.284;2023-06-22T11:52:42;93457.00;;;29.90;42.33
9229;BME280;4649;42.644;23.284;2023-06-22T11:55:10;93490.97;;;30.21;42.55
9229;BME280;4649;42.644;23.284;2023-06-22T11:57:38;93383.13;;;29.02;43.25
9229;BME280;4649;42.644;23.284;2023-06-22T12:00:07;93501.91;;;29.07;43.99
9229;BME280;4649;42.644;23.284;2023-06-22T12:02:41;93467.75;;;28.74;51.64
9229;BME280;4649;42.644;23.284;2023-06-22T12:05:08;93472.53;;;28.83;55.09
9229;BME280;4649;42.644;23.284;2023-06-22T12:07:38;93452.09;;;28.28;58.71
9229;BME280;4649;42.644;23.284;2023-06-22T12:10:06;93422.88;;;27.66;58.17
9229;BME280;4649;42.644;23.284;2023-06-22T12:12:36;93338.72;;;26.96;64.69
9229;BME280;4649;42.644;23.284;2023-06-22T12:15:04;93408.00;;;27.43;66.54
9229;BME280;4649;42.644;23.284;2023-06-22T12:17:33;93348.63;;;26.40;68.21
9229;BME280;4649;42.644;23.284;2023-06-22T12:20:01;93446.75;;;27.10;66.71
9229;BME280;4649;42.644;23.284;2023-06-22T12:22:31;93345.69;;;26.19;70.06
9229;BME280;4649;42.644;23.284;2023-06-22T12:25:01;93520.69;;;27.63;69.70
9229;BME280;4649;42.644;23.284;2023-06-22T12:27:28;93347.72;;;26.47;68.89
9229;BME280;4649;42.644;23.284;2023-06-22T12:29:56;93517.16;;;27.62;68.17
9229;BME280;4649;42.644;23.284;2023-06-22T12:32:24;93517.06;;;27.32;66.35
9229;BME280;4649;42.644;23.284;2023-06-22T12:34:52;93415.06;;;26.19;68.91
9229;BME280;4649;42.644;23.284;2023-06-22T12:37:19;93446.19;;;26.08;70.72
9229;BME280;4649;42.644;23.284;2023-06-22T12:39:48;93464.00;;;25.60;75.41
9229;BME280;4649;42.644;23.284;2023-06-22T12:42:17;93412.00;;;24.89;73.95
9229;BME280;4649;42.644;23.284;2023-06-22T12:44:49;93409.09;;;24.27;76.22
9229;BME280;4649;42.644;23.284;2023-06-22T12:49:44;93520.69;;;23.64;89.86
9229;BME280;4649;42.644;23.284;2023-06-22T12:52:27;93397.69;;;22.44;88.46
9229;BME280;4649;42.644;23.284;2023-06-22T12:54:54;93509.47;;;23.06;89.31
9229;BME280;4649;42.644;23.284;2023-06-22T12:57:45;93506.63;;;22.82;92.62
9229;BME280;4649;42.644;23.284;2023-06-22T13:00:22;93432.53;;;22.24;95.26
9229;BME280;4649;42.644;23.284;2023-06-22T13:02:55;93400.19;;;21.41;100.00
9229;BME280;4649;42.644;23.284;2023-06-22T13:05:22;93477.84;;;21.84;100.00
9229;BME280;4649;42.644;23.284;2023-06-22T13:07:52;93499.81;;;22.21;98.46
9229;BME280;4649;42.644;23.284;2023-06-22T13:10:29;93515.22;;;22.47;96.16
9229;BME280;4649;42.644;23.284;2023-06-22T13:16:26;93545.16;;;22.65;100.00
9229;BME280;4649;42.644;23.284;2023-06-22T13:18:54;93399.22;;;21.76;97.96
9229;BME280;4649;42.644;23.284;2023-06-22T13:21:35;93496.47;;;22.45;100.00
9229;BME280;4649;42.644;23.284;2023-06-22T13:24:03;93471.09;;;22.47;94.82
9229;BME280;4649;42.644;23.284;2023-06-22T13:26:34;93456.75;;;22.41;99.73
9229;BME280;4649;42.644;23.284;2023-06-22T13:29:10;93542.06;;;23.08;100.00
9229;BME280;4649;42.644;23.284;2023-06-22T13:31:58;93406.06;;;22.21;91.74
9229;BME280;4649;42.644;23.284;2023-06-22T13:34:44;93444.78;;;22.85;100.00
9229;BME280;4649;42.644;23.284;2023-06-22T13:37:26;93429.44;;;22.67;100.00
9229;BME280;4649;42.644;23.284;2023-06-22T13:40:24;93538.03;;;23.57;100.00
9229;BME280;4649;42.644;23.284;2023-06-22T13:43:02;93466.03;;;23.07;100.00
9229;BME280;4649;42.644;23.284;2023-06-22T13:45:38;93525.91;;;23.29;100.00
9229;BME280;4649;42.644;23.284;2023-06-22T13:51:31;93391.03;;;22.07;100.00
9229;BME280;4649;42.644;23.284;2023-06-22T13:53:58;93400.38;;;22.27;100.00
9229;BME280;4649;42.644;23.284;2023-06-22T13:56:29;93423.66;;;22.41;100.00
9229;BME280;4649;42.644;23.284;2023-06-22T13:59:01;93532.69;;;22.96;100.00
9229;BME280;4649;42.644;23.284;2023-06-22T14:01:29;93423.03;;;22.03;100.00
9229;BME280;4649;42.644;23.284;2023-06-22T14:03:56;93390.59;;;21.79;100.00
9229;BME280;4649;42.644;23.284;2023-06-22T14:09:49;93352.25;;;21.29;100.00
9229;BME280;4649;42.644;23.284;2023-06-22T14:12:36;93524.59;;;22.44;100.00
9229;BME280;4649;42.644;23.284;2023-06-22T14:15:04;93387.50;;;21.38;100.00
9229;BME280;4649;42.644;23.284;2023-06-22T14:17:32;93471.03;;;21.78;100.00
9229;BME280;4649;42.644;23.284;2023-06-22T14:20:29;93465.88;;;21.89;100.00
9229;BME280;4649;42.644;23.284;2023-06-22T14:23:00;93422.03;;;21.61;100.00
9229;BME280;4649;42.644;23.284;2023-06-22T14:29:01;93523.78;;;21.67;100.00
9229;BME280;4649;42.644;23.284;2023-06-22T14:31:29;93489.00;;;20.97;100.00
9229;BME280;4649;42.644;23.284;2023-06-22T14:33:58;93467.53;;;21.03;100.00
9229;BME280;4649;42.644;23.284;2023-06-22T14:36:28;93382.69;;;20.57;100.00
9229;BME280;4649;42.644;23.284;2023-06-22T14:39:09;93471.59;;;21.32;100.00
9229;BME280;4649;42.644;23.284;2023-06-22T14:41:50;93438.19;;;21.05;100.00
9229;BME280;4649;42.644;23.284;2023-06-22T15:07:46;93537.47;;;23.34;100.00
9229;BME280;4649;42.644;23.284;2023-06-22T15:10:16;93467.03;;;23.19;100.00
9229;BME280;4649;42.644;23.284;2023-06-22T15:13:14;93350.22;;;22.13;100.00
9229;BME280;4649;42.644;23.284;2023-06-22T15:19:16;93443.41;;;23.01;100.00
9229;BME280;4649;42.644;23.284;2023-06-22T15:37:45;93413.84;;;24.17;99.80
9229;BME280;4649;42.644;23.284;2023-06-22T15:40:17;93495.91;;;24.99;98.54
9229;BME280;4649;42.644;23.284;2023-06-22T16:13:44;93492.91;;;25.31;90.00
9229;BME280;4649;42.644;23.284;2023-06-22T16:16:12;93542.00;;;25.21;90.48
9229;BME280;4649;42.644;23.284;2023-06-22T16:19:18;93535.66;;;25.11;91.57
9229;BME280;4649;42.644;23.284;2023-06-22T16:25:10;93367.75;;;23.45;87.54
9229;BME280;4649;42.644;23.284;2023-06-22T16:30:40;93535.88;;;23.48;97.39
9229;BME280;4649;42.644;23.284;2023-06-22T16:35:38;93342.31;;;22.17;95.04
9229;BME280;4649;42.644;23.284;2023-06-22T16:43:17;93375.97;;;22.79;93.37
9229;BME280;4649;42.644;23.284;2023-06-22T16:52:01;93508.00;;;23.61;93.64
9229;BME280;4649;42.644;23.284;2023-06-22T17:04:04;93460.03;;;23.18;94.29
9229;BME280;4649;42.644;23.284;2023-06-22T17:10:08;93476.69;;;23.34;93.75
9229;BME280;4649;42.644;23.284;2023-06-22T17:12:35;93513.63;;;23.46;92.62
9229;BME280;4649;42.644;23.284;2023-06-22T17:15:04;93489.72;;;23.41;94.65
9229;BME280;4649;42.644;23.284;2023-06-22T17:17:33;93540.81;;;23.57;92.18
9229;BME280;4649;42.644;23.284;2023-06-22T17:20:02;93468.59;;;23.05;94.30
9229;BME280;4649;42.644;23.284;2023-06-22T17:22:35;93423.38;;;22.61;92.72
9229;BME280;4649;42.644;23.284;2023-06-22T17:25:19;93338.16;;;21.94;93.81
9229;BME280;4649;42.644;23.284;2023-06-22T17:28:00;93530.19;;;23.22;93.58
9229;BME280;4649;42.644;23.284;2023-06-22T17:30:44;93437.63;;;22.43;91.76
9229;BME280;4649;42.644;23.284;2023-06-22T17:33:14;93409.38;;;22.20;90.97
9229;BME280;4649;42.644;23.284;2023-06-22T17:35:48;93451.63;;;22.37;90.30
9229;BME280;4649;42.644;23.284;2023-06-22T17:38:20;93413.50;;;21.97;91.69
9229;BME280;4649;42.644;23.284;2023-06-22T17:48:10;93444.72;;;21.99;95.39
9229;BME280;4649;42.644;23.284;2023-06-22T17:50:42;93453.91;;;22.02;91.10
9229;BME280;4649;42.644;23.284;2023-06-22T17:53:10;93523.31;;;22.52;93.13
9229;BME280;4649;42.644;23.284;2023-06-22T18:01:39;93438.81;;;22.10;87.95
9229;BME280;4649;42.644;23.284;2023-06-22T18:18:40;93423.25;;;21.83;90.21
9229;BME280;4649;42.644;23.284;2023-06-22T18:24:12;93404.41;;;21.57;88.11
9229;BME280;4649;42.644;23.284;2023-06-22T18:26:59;93487.75;;;22.02;94.13
9229;BME280;4649;42.644;23.284;2023-06-22T18:29:28;93494.13;;;22.19;86.71
9229;BME280;4649;42.644;23.284;2023-06-22T18:31:56;93498.69;;;22.39;89.80
9229;BME280;4649;42.644;23.284;2023-06-22T18:34:28;93470.25;;;22.07;96.35
9229;BME280;4649;42.644;23.284;2023-06-22T18:36:57;93531.81;;;22.09;92.92
9229;BME280;4649;42.644;23.284;2023-06-22T18:39:26;93547.28;;;22.12;97.49
9229;BME280;4649;42.644;23.284;2023-06-22T18:41:55;93518.44;;;21.99;88.93
9229;BME280;4649;42.644;23.284;2023-06-22T18:44:26;93364.03;;;21.30;81.82
9229;BME280;4649;42.644;23.284;2023-06-22T18:46:57;93503.50;;;22.31;85.62
9229;BME280;4649;42.644;23.284;2023-06-22T18:49:33;93475.75;;;22.14;84.04
9229;BME280;4649;42.644;23.284;2023-06-22T18:52:04;93429.66;;;22.00;81.26
9229;BME280;4649;42.644;23.284;2023-06-22T18:54:34;93522.94;;;22.48;85.07
9229;BME280;4649;42.644;23.284;2023-06-22T18:57:03;93536.97;;;22.20;82.52
9229;BME280;4649;42.644;23.284;2023-06-22T18:59:45;93524.34;;;21.73;83.21
9229;BME280;4649;42.644;23.284;2023-06-22T19:02:14;93559.03;;;22.20;85.00
9229;BME280;4649;42.644;23.284;2023-06-22T19:04:43;93452.16;;;21.52;88.12
9229;BME280;4649;42.644;23.284;2023-06-22T19:07:11;93570.25;;;22.07;89.58
9229;BME280;4649;42.644;23.284;2023-06-22T19:09:39;93448.47;;;21.12;93.85
9229;BME280;4649;42.644;23.284;2023-06-22T19:12:23;93473.44;;;21.37;93.37
9229;BME280;4649;42.644;23.284;2023-06-22T19:15:01;93535.69;;;21.99;94.23
9229;BME280;4649;42.644;23.284;2023-06-22T19:17:29;93544.31;;;22.18;93.21
9229;BME280;4649;42.644;23.284;2023-06-22T19:20:02;93514.94;;;21.98;89.71
9229;BME280;4649;42.644;23.284;2023-06-22T19:22:44;93575.53;;;22.50;90.90
9229;BME280;4649;42.644;23.284;2023-06-22T19:25:19;93443.31;;;21.76;87.24
9229;BME280;4649;42.644;23.284;2023-06-22T19:27:56;93455.59;;;21.90;86.54
9229;BME280;4649;42.644;23.284;2023-06-22T19:30:24;93510.16;;;22.13;89.41
9229;BME280;4649;42.644;23.284;2023-06-22T19:33:07;93563.97;;;22.44;89.46
9229;BME280;4649;42.644;23.284;2023-06-22T19:36:00;93570.22;;;22.45;97.01
9229;BME280;4649;42.644;23.284;2023-06-22T19:38:28;93564.00;;;22.29;89.84
9229;BME280;4649;42.644;23.284;2023-06-22T19:40:59;93573.41;;;22.26;92.15
9229;BME280;4649;42.644;23.284;2023-06-22T19:43:42;93383.13;;;20.83;88.07
9229;BME280;4649;42.644;23.284;2023-06-22T19:46:09;93530.34;;;22.16;87.58
9229;BME280;4649;42.644;23.284;2023-06-22T19:48:39;93532.75;;;22.12;93.04
9229;BME280;4649;42.644;23.284;2023-06-22T19:51:13;93467.41;;;21.68;87.83
9229;BME280;4649;42.644;23.284;2023-06-22T19:53:40;93488.69;;;21.67;88.39
9229;BME280;4649;42.644;23.284;2023-06-22T19:56:07;93508.34;;;21.71;92.66
9229;BME280;4649;42.644;23.284;2023-06-22T19:58:34;93541.00;;;22.04;90.34
9229;BME280;4649;42.644;23.284;2023-06-22T20:01:02;93556.84;;;22.26;87.04
9229;BME280;4649;42.644;23.284;2023-06-22T20:03:30;93416.50;;;20.94;89.03
9229;BME280;4649;42.644;23.284;2023-06-22T20:06:08;93436.50;;;20.87;89.50
9229;BME280;4649;42.644;23.284;2023-06-22T20:08:44;93398.94;;;20.32;92.15
9229;BME280;4649;42.644;23.284;2023-06-22T20:11:11;93510.84;;;21.10;94.43
9229;BME280;4649;42.644;23.284;2023-06-22T20:13:46;93557.00;;;21.46;96.88
9229;BME280;4649;42.644;23.284;2023-06-22T20:16:13;93440.47;;;20.64;94.89
9229;BME280;4649;42.644;23.284;2023-06-22T20:18:41;93530.34;;;21.34;95.64
9229;BME280;4649;42.644;23.284;2023-06-22T20:21:09;93529.66;;;21.56;93.40
9229;BME280;4649;42.644;23.284;2023-06-22T20:23:40;93505.56;;;21.42;94.64
9229;BME280;4649;42.644;23.284;2023-06-22T20:26:12;93533.28;;;21.36;97.14
9229;BME280;4649;42.644;23.284;2023-06-22T20:28:43;93526.72;;;21.54;94.79
9229;BME280;4649;42.644;23.284;2023-06-22T20:31:12;93521.03;;;21.74;85.84
9229;BME280;4649;42.644;23.284;2023-06-22T20:33:39;93438.00;;;21.03;86.14
9229;BME280;4649;42.644;23.284;2023-06-22T20:36:07;93465.72;;;21.28;84.33
9229;BME280;4649;42.644;23.284;2023-06-22T20:38:36;93540.88;;;21.73;83.09
9229;BME280;4649;42.644;23.284;2023-06-22T20:41:03;93494.16;;;21.00;86.69
9229;BME280;4649;42.644;23.284;2023-06-22T20:43:34;93379.34;;;20.43;85.00
9229;BME280;4649;42.644;23.284;2023-06-22T20:46:02;93487.56;;;21.11;88.37